createdAt,value
2022-07-26T00:01:31.626Z,16.98
2022-07-26T00:04:02.373Z,15.65
2022-07-26T00:06:31.571Z,16.52
2022-07-26T00:09:00.844Z,16.30
2022-07-26T00:11:31.793Z,15.45
2022-07-26T00:14:03.288Z,16.40
2022-07-26T00:16:32.686Z,17.70
2022-07-26T00:19:01.981Z,14.57
2022-07-26T00:21:32.282Z,12.90
2022-07-26T00:24:01.409Z,16.50
2022-07-26T00:26:30.594Z,12.43
2022-07-26T00:28:59.800Z,13.63
2022-07-26T00:31:28.981Z,11.77
2022-07-26T00:33:58.258Z,12.88
2022-07-26T00:36:28.951Z,15.95
2022-07-26T00:38:58.102Z,18.13
2022-07-26T00:41:27.206Z,13.05
2022-07-26T00:44:01.421Z,12.43
2022-07-26T00:46:30.651Z,11.25
2022-07-26T00:48:59.973Z,10.65
2022-07-26T00:51:30.443Z,8.75
2022-07-26T00:53:59.693Z,10.80
2022-07-26T00:56:29.259Z,8.45
2022-07-26T00:58:58.524Z,11.20
2022-07-26T01:01:27.966Z,10.90
2022-07-26T01:03:57.475Z,17.75
2022-07-26T01:06:27.508Z,17.58
2022-07-26T01:08:58.313Z,9.35
2022-07-26T01:11:27.587Z,6.85
2022-07-26T01:13:56.831Z,11.85
2022-07-26T01:16:27.016Z,7.82
2022-07-26T01:18:56.302Z,6.78
2022-07-26T01:21:30.765Z,10.93
2022-07-26T01:24:00.381Z,9.10
2022-07-26T01:26:29.699Z,7.05
2022-07-26T01:28:58.921Z,10.43
2022-07-26T01:31:28.281Z,7.47
2022-07-26T01:33:57.552Z,8.35
2022-07-26T01:36:26.705Z,9.98
2022-07-26T01:38:56.321Z,8.55
2022-07-26T01:41:37.906Z,8.13
2022-07-26T01:44:09.450Z,8.52
2022-07-26T01:46:38.909Z,4.85
2022-07-26T01:49:10.068Z,9.27
2022-07-26T01:51:39.408Z,6.53
2022-07-26T01:54:08.944Z,5.45
2022-07-26T01:56:38.416Z,7.55
2022-07-26T01:59:07.911Z,6.57
2022-07-26T02:01:38.863Z,6.65
2022-07-26T02:04:30.319Z,5.22
2022-07-26T02:07:00.370Z,5.95
2022-07-26T02:09:39.577Z,6.93
2022-07-26T02:12:09.711Z,4.88
2022-07-26T02:14:39.356Z,6.15
2022-07-26T02:17:08.918Z,5.80
2022-07-26T02:19:38.217Z,5.55
2022-07-26T02:22:08.131Z,5.70
2022-07-26T02:24:37.370Z,6.20
2022-07-26T02:27:12.193Z,9.68
2022-07-26T02:29:41.608Z,8.48
2022-07-26T02:32:12.517Z,7.90
2022-07-26T02:34:41.791Z,5.40
2022-07-26T02:37:10.975Z,4.82
2022-07-26T02:39:40.195Z,6.82
2022-07-26T02:42:09.830Z,6.90
2022-07-26T02:44:39.110Z,6.88
2022-07-26T02:47:08.319Z,9.40
2022-07-26T02:49:37.587Z,6.00
2022-07-26T02:52:07.182Z,9.63
2022-07-26T02:54:36.440Z,10.55
2022-07-26T02:57:05.816Z,10.95
2022-07-26T02:59:34.990Z,7.70
2022-07-26T03:02:04.404Z,8.68
2022-07-26T03:04:33.656Z,7.10
2022-07-26T03:07:02.820Z,7.30
2022-07-26T03:09:33.355Z,6.95
2022-07-26T03:12:02.605Z,6.20
2022-07-26T03:14:31.759Z,7.40
2022-07-26T03:17:00.932Z,5.88
2022-07-26T03:19:30.183Z,6.47
2022-07-26T03:21:59.662Z,6.30
2022-07-26T03:24:29.700Z,5.55
2022-07-26T03:26:59.284Z,7.05
2022-07-26T03:29:28.594Z,3.78
2022-07-26T03:31:57.808Z,3.88
2022-07-26T03:34:27.490Z,4.60
2022-07-26T03:36:56.586Z,6.15
2022-07-26T03:39:28.048Z,5.85
2022-07-26T03:41:57.296Z,7.65
2022-07-26T03:44:26.548Z,4.03
2022-07-26T03:46:55.722Z,6.63
2022-07-26T03:49:25.294Z,6.35
2022-07-26T03:51:55.077Z,6.38
2022-07-26T03:54:24.376Z,3.58
2022-07-26T03:56:54.239Z,4.90
2022-07-26T03:59:25.454Z,7.95
2022-07-26T04:01:55.306Z,4.20
2022-07-26T04:04:25.350Z,7.32
2022-07-26T04:06:57.841Z,4.53
2022-07-26T04:09:32.550Z,6.30
2022-07-26T04:12:01.736Z,5.82
2022-07-26T04:26:05.769Z,4.30
2022-07-26T04:28:35.136Z,4.95
2022-07-26T04:31:04.410Z,6.43
2022-07-26T04:33:34.901Z,8.05
2022-07-26T04:36:05.134Z,5.55
2022-07-26T04:38:34.325Z,4.45
2022-07-26T04:41:03.708Z,6.57
2022-07-26T04:43:33.303Z,3.63
2022-07-26T04:46:02.819Z,6.05
2022-07-26T04:48:32.168Z,4.63
2022-07-26T04:51:03.053Z,5.95
2022-07-26T04:53:32.362Z,6.60
2022-07-26T04:56:01.664Z,5.43
2022-07-26T04:58:30.892Z,10.95
2022-07-26T05:01:09.913Z,6.35
2022-07-26T05:03:42.112Z,6.47
2022-07-26T05:06:11.778Z,4.22
2022-07-26T05:08:41.007Z,7.72
2022-07-26T05:11:10.741Z,5.88
2022-07-26T05:13:40.206Z,4.10
2022-07-26T05:16:11.954Z,4.25
2022-07-26T05:18:45.909Z,4.78
2022-07-26T05:21:20.025Z,5.40
2022-07-26T05:23:49.491Z,5.10
2022-07-26T05:26:18.631Z,6.45
2022-07-26T05:28:47.867Z,4.00
2022-07-26T05:31:18.288Z,6.88
2022-07-26T05:33:47.539Z,4.05
2022-07-26T05:36:16.745Z,4.80
2022-07-26T05:38:46.033Z,5.53
2022-07-26T05:41:15.213Z,3.83
2022-07-26T05:43:44.421Z,4.78
2022-07-26T05:46:13.935Z,6.68
2022-07-26T05:48:43.495Z,6.00
2022-07-26T05:51:13.821Z,7.07
2022-07-26T05:53:42.931Z,9.27
2022-07-26T06:03:36.077Z,8.23
2022-07-26T06:06:05.359Z,20.00
2022-07-26T06:08:34.789Z,18.55
2022-07-26T06:11:04.043Z,8.57
2022-07-26T06:13:33.448Z,9.05
2022-07-26T06:16:03.442Z,5.20
2022-07-26T06:18:32.630Z,7.60
2022-07-26T06:21:02.196Z,6.82
2022-07-26T06:23:34.602Z,7.35
2022-07-26T06:26:05.395Z,4.55
2022-07-26T06:28:35.401Z,5.80
2022-07-26T06:31:04.685Z,3.58
2022-07-26T06:33:33.987Z,5.85
2022-07-26T06:36:03.260Z,7.47
2022-07-26T06:38:32.620Z,4.15
2022-07-26T06:41:01.981Z,6.20
2022-07-26T06:43:31.192Z,4.50
2022-07-26T06:46:00.611Z,4.97
2022-07-26T06:48:29.866Z,6.35
2022-07-26T06:50:59.041Z,3.80
2022-07-26T06:53:28.275Z,10.18
2022-07-26T06:55:57.444Z,5.65
2022-07-26T06:58:26.588Z,5.00
2022-07-26T07:00:56.160Z,7.57
2022-07-26T07:03:25.616Z,6.78
2022-07-26T07:05:54.765Z,6.72
2022-07-26T07:08:26.139Z,7.00
2022-07-26T07:10:57.179Z,6.63
2022-07-26T07:13:27.683Z,12.35
2022-07-26T07:15:56.933Z,7.00
2022-07-26T07:18:26.926Z,12.48
2022-07-26T07:20:56.139Z,9.18
2022-07-26T07:23:25.390Z,6.97
2022-07-26T07:25:54.613Z,4.97
2022-07-26T07:28:25.422Z,5.53
2022-07-26T07:30:54.609Z,5.10
2022-07-26T07:33:23.798Z,5.32
2022-07-26T07:35:55.331Z,4.07
2022-07-26T07:38:24.467Z,5.07
2022-07-26T07:40:54.092Z,6.53
2022-07-26T07:43:23.717Z,5.72
2022-07-26T07:45:52.878Z,8.00
2022-07-26T07:48:23.192Z,21.65
2022-07-26T07:50:52.405Z,8.52
2022-07-26T07:53:21.708Z,12.77
2022-07-26T07:55:51.748Z,7.65
2022-07-26T07:58:24.953Z,5.95
2022-07-26T08:00:57.561Z,5.07
2022-07-26T08:03:38.595Z,3.42
2022-07-26T08:06:11.051Z,6.68
2022-07-26T08:08:40.747Z,8.77
2022-07-26T08:11:12.519Z,5.00
2022-07-26T08:13:45.802Z,5.20
2022-07-26T08:16:17.401Z,6.88
2022-07-26T08:18:56.970Z,7.43
2022-07-26T08:21:29.164Z,5.88
2022-07-26T08:23:59.137Z,6.82
2022-07-26T08:26:28.391Z,17.13
2022-07-26T08:29:08.968Z,18.90
2022-07-26T08:31:38.407Z,11.93
2022-07-26T08:34:08.032Z,4.53
2022-07-26T08:36:41.968Z,18.17
2022-07-26T08:43:10.483Z,9.63
2022-07-26T08:45:40.182Z,11.43
2022-07-26T08:48:18.112Z,17.75
2022-07-26T08:50:48.890Z,8.25
2022-07-26T08:53:18.381Z,6.55
2022-07-26T08:58:38.157Z,6.90
2022-07-26T09:01:10.740Z,7.40
2022-07-26T09:06:28.151Z,6.68
2022-07-26T09:09:14.051Z,8.00
2022-07-26T09:11:43.262Z,10.02
2022-07-26T09:14:12.504Z,8.85
2022-07-26T09:16:41.868Z,7.25
2022-07-26T09:19:22.853Z,4.97
2022-07-26T09:21:53.547Z,4.75
2022-07-26T09:24:34.268Z,4.13
2022-07-26T09:27:06.962Z,3.92
2022-07-26T09:32:26.095Z,3.20
2022-07-26T09:34:59.002Z,4.88
2022-07-26T09:37:45.563Z,3.78
2022-07-26T09:40:17.243Z,6.65
2022-07-26T09:43:07.245Z,8.00
2022-07-26T09:45:39.329Z,7.57
2022-07-26T09:48:13.754Z,2.45
2022-07-26T09:50:50.181Z,4.57
2022-07-26T09:53:19.610Z,5.05
2022-07-26T09:55:50.654Z,3.90
2022-07-26T09:58:20.477Z,1.92
2022-07-26T10:00:50.180Z,5.25
2022-07-26T10:03:19.521Z,6.90
2022-07-26T10:05:48.893Z,5.82
2022-07-26T10:08:19.627Z,3.90
2022-07-26T10:11:03.668Z,3.60
2022-07-26T10:13:33.077Z,3.22
2022-07-26T10:16:03.268Z,10.30
2022-07-26T10:18:40.901Z,3.83
2022-07-26T10:21:27.025Z,7.72
2022-07-26T10:24:00.488Z,11.27
2022-07-26T10:26:39.219Z,3.95
2022-07-26T10:29:18.472Z,3.03
2022-07-26T10:31:50.695Z,2.85
2022-07-26T10:34:38.524Z,2.88
2022-07-26T10:37:10.404Z,2.95
2022-07-26T10:39:40.973Z,5.28
2022-07-26T10:42:12.426Z,7.30
2022-07-26T10:44:46.630Z,8.05
2022-07-26T10:47:19.857Z,4.80
2022-07-26T10:49:58.939Z,5.30
2022-07-26T10:52:30.536Z,9.02
2022-07-26T10:55:01.669Z,8.98
2022-07-26T10:57:35.151Z,10.82
2022-07-26T11:00:11.271Z,13.10
2022-07-26T11:02:41.063Z,5.65
2022-07-26T11:05:15.533Z,6.15
2022-07-26T11:07:54.379Z,5.85
2022-07-26T11:10:27.917Z,14.70
2022-07-26T11:13:17.355Z,4.25
2022-07-26T11:15:49.677Z,6.38
2022-07-26T11:18:22.617Z,6.90
2022-07-26T11:20:56.576Z,5.63
2022-07-26T11:23:28.596Z,4.25
2022-07-26T11:26:09.161Z,11.70
2022-07-26T11:28:46.822Z,9.45
2022-07-26T11:31:18.142Z,19.30
2022-07-26T11:36:35.105Z,25.38
2022-07-26T11:41:35.194Z,6.53
2022-07-26T11:44:05.625Z,13.10
2022-07-26T11:46:39.383Z,11.27
2022-07-26T11:49:20.915Z,13.88
2022-07-26T11:51:53.469Z,9.60
2022-07-26T11:54:24.643Z,4.68
2022-07-26T11:56:56.789Z,7.55
2022-07-26T11:59:35.854Z,8.10
2022-07-26T12:02:07.487Z,10.75
2022-07-26T12:04:42.002Z,19.00
2022-07-26T12:07:15.070Z,9.30
2022-07-26T12:09:52.003Z,7.47
2022-07-26T12:12:24.698Z,8.60
2022-07-26T12:17:34.894Z,13.68
2022-07-26T12:20:20.464Z,26.48
2022-07-26T12:23:01.674Z,16.35
2022-07-26T12:25:31.477Z,8.07
2022-07-26T12:28:00.709Z,11.75
2022-07-26T12:30:36.378Z,9.73
2022-07-26T12:33:05.722Z,10.60
2022-07-26T12:35:36.974Z,13.05
2022-07-26T12:38:06.214Z,9.93
2022-07-26T12:40:43.718Z,7.65
2022-07-26T12:43:13.641Z,7.93
2022-07-26T12:45:42.842Z,6.22
2022-07-26T12:48:13.245Z,8.52
2022-07-26T12:50:42.462Z,7.55
2022-07-26T12:53:12.854Z,14.98
2022-07-26T12:55:42.287Z,9.20
2022-07-26T12:58:11.546Z,10.68
2022-07-26T13:00:40.900Z,17.42
2022-07-26T13:03:10.125Z,7.07
2022-07-26T13:05:39.373Z,12.02
2022-07-26T13:08:08.550Z,9.50
2022-07-26T13:10:37.876Z,8.80
2022-07-26T13:13:07.306Z,13.20
2022-07-26T13:15:37.973Z,7.65
2022-07-26T13:18:09.718Z,7.03
2022-07-26T13:20:39.902Z,7.90
2022-07-26T13:23:15.864Z,9.52
2022-07-26T13:25:51.566Z,12.48
2022-07-26T13:28:20.882Z,8.55
2022-07-26T13:30:50.083Z,15.32
2022-07-26T13:33:19.379Z,8.70
2022-07-26T13:35:50.143Z,12.25
2022-07-26T13:38:20.998Z,17.33
2022-07-26T13:40:51.774Z,16.15
2022-07-26T13:43:20.989Z,12.00
2022-07-26T13:45:50.190Z,12.93
2022-07-26T13:48:19.345Z,13.52
2022-07-26T13:50:48.625Z,13.00
2022-07-26T13:53:18.361Z,20.77
2022-07-26T13:55:47.580Z,23.35
2022-07-26T13:58:16.970Z,11.70
2022-07-26T14:00:46.097Z,14.73
2022-07-26T14:03:15.365Z,12.02
2022-07-26T14:05:44.617Z,9.00
2022-07-26T14:08:14.337Z,10.13
2022-07-26T14:10:43.804Z,11.27
2022-07-26T14:13:13.034Z,14.10
2022-07-26T14:15:42.225Z,18.52
2022-07-26T14:18:11.374Z,18.83
2022-07-26T14:20:40.661Z,18.33
2022-07-26T14:23:09.810Z,16.63
2022-07-26T14:25:38.934Z,23.92
2022-07-26T14:28:08.232Z,23.42
2022-07-26T14:30:38.074Z,11.07
2022-07-26T14:33:07.924Z,11.82
2022-07-26T14:35:37.164Z,12.90
2022-07-26T14:38:06.480Z,12.13
2022-07-26T14:40:37.241Z,9.90
2022-07-26T14:43:06.503Z,12.45
2022-07-26T14:45:35.663Z,13.10
2022-07-26T14:48:04.922Z,12.77
2022-07-26T14:50:53.114Z,13.00
2022-07-26T14:53:23.738Z,9.98
2022-07-26T14:55:53.750Z,11.50
2022-07-26T14:58:22.992Z,14.07
2022-07-26T15:00:54.246Z,7.80
2022-07-26T15:03:23.575Z,25.40
2022-07-26T15:05:52.858Z,8.25
2022-07-26T15:08:22.055Z,11.88
2022-07-26T15:10:51.903Z,8.85
2022-07-26T15:13:21.158Z,7.18
2022-07-26T15:15:50.364Z,7.90
2022-07-26T15:18:19.686Z,9.75
2022-07-26T15:20:48.945Z,10.07
2022-07-26T15:23:18.243Z,12.13
2022-07-26T15:25:49.942Z,8.73
2022-07-26T15:28:19.479Z,7.95
2022-07-26T15:30:48.708Z,10.02
2022-07-26T15:33:18.493Z,13.43
2022-07-26T15:35:47.873Z,8.88
2022-07-26T15:38:17.050Z,8.60
2022-07-26T15:40:46.326Z,9.57
2022-07-26T15:43:23.903Z,8.93
2022-07-26T15:46:12.856Z,9.65
2022-07-26T15:48:43.452Z,11.50
2022-07-26T15:51:12.611Z,9.00
2022-07-26T15:53:46.447Z,8.95
2022-07-26T15:56:16.090Z,6.60
2022-07-26T15:58:45.402Z,13.45
2022-07-26T16:01:15.820Z,7.45
2022-07-26T16:03:45.071Z,7.82
2022-07-26T16:06:14.324Z,9.32
2022-07-26T16:09:05.812Z,11.32
2022-07-26T16:11:33.175Z,10.82
2022-07-26T16:14:02.377Z,10.05
2022-07-26T16:16:32.364Z,7.70
2022-07-26T16:19:01.641Z,7.60
2022-07-26T16:21:30.802Z,9.90
2022-07-26T16:24:04.467Z,9.50
2022-07-26T16:26:36.265Z,12.73
2022-07-26T16:29:07.383Z,8.43
2022-07-26T16:31:37.672Z,8.07
2022-07-26T16:34:10.117Z,9.52
2022-07-26T16:36:39.715Z,6.78
2022-07-26T16:39:09.406Z,8.77
2022-07-26T16:41:38.843Z,10.27
2022-07-26T16:44:08.143Z,8.23
2022-07-26T16:46:37.390Z,7.78
2022-07-26T16:49:06.785Z,8.98
2022-07-26T16:51:36.087Z,8.13
2022-07-26T16:54:05.321Z,7.57
2022-07-26T16:56:34.624Z,8.20
2022-07-26T17:02:34.035Z,6.25
2022-07-26T17:05:03.601Z,9.13
2022-07-26T17:07:33.413Z,6.30
2022-07-26T17:10:02.565Z,10.63
2022-07-26T17:12:31.716Z,8.43
2022-07-26T17:15:01.229Z,8.88
2022-07-26T17:17:30.436Z,10.40
2022-07-26T17:19:59.528Z,10.70
2022-07-26T17:22:28.704Z,15.73
2022-07-26T17:24:57.790Z,10.15
2022-07-26T17:27:27.500Z,7.20
2022-07-26T17:29:56.702Z,7.25
2022-07-26T17:32:25.926Z,7.40
2022-07-26T17:34:55.284Z,8.73
2022-07-26T17:37:24.482Z,9.38
2022-07-26T17:39:54.237Z,8.30
2022-07-26T17:42:24.192Z,9.52
2022-07-26T17:44:53.649Z,8.55
2022-07-26T17:47:29.534Z,7.93
2022-07-26T17:52:53.328Z,6.53
2022-07-26T17:55:23.494Z,6.80
2022-07-26T17:57:53.551Z,7.82
2022-07-26T18:00:28.899Z,7.22
2022-07-26T18:02:59.250Z,6.75
2022-07-26T18:05:34.199Z,6.13
2022-07-26T18:08:05.455Z,10.98
2022-07-26T18:10:34.657Z,8.70
2022-07-26T18:13:03.742Z,9.23
2022-07-26T18:15:32.910Z,10.55
2022-07-26T18:18:02.167Z,7.78
2022-07-26T18:20:31.461Z,7.25
2022-07-26T18:23:00.908Z,6.40
2022-07-26T18:25:30.150Z,10.18
2022-07-26T18:28:03.280Z,8.30
2022-07-26T18:30:35.962Z,6.45
2022-07-26T18:33:05.979Z,9.25
2022-07-26T18:35:35.209Z,10.95
2022-07-26T18:38:04.466Z,9.15
2022-07-26T18:40:33.780Z,8.00
2022-07-26T18:43:03.085Z,9.60
2022-07-26T18:45:34.490Z,7.28
2022-07-26T18:48:03.655Z,11.13
2022-07-26T18:50:32.783Z,8.85
2022-07-26T18:53:02.118Z,8.45
2022-07-26T18:55:31.272Z,8.23
2022-07-26T18:58:06.235Z,7.82
2022-07-26T19:00:36.046Z,8.73
2022-07-26T19:03:05.463Z,8.45
2022-07-26T19:05:35.526Z,8.63
2022-07-26T19:08:05.804Z,8.65
2022-07-26T19:10:35.078Z,6.85
2022-07-26T19:13:04.363Z,8.05
2022-07-26T19:15:33.753Z,6.88
2022-07-26T19:18:12.288Z,8.52
2022-07-26T19:20:41.761Z,7.10
2022-07-26T19:23:12.626Z,6.90
2022-07-26T19:25:42.851Z,7.38
2022-07-26T19:28:12.175Z,7.07
2022-07-26T19:30:41.320Z,7.97
2022-07-26T19:33:10.523Z,10.27
2022-07-26T19:35:39.670Z,10.15
2022-07-26T19:38:08.817Z,16.50
2022-07-26T19:40:38.015Z,9.00
2022-07-26T19:43:07.370Z,38.80
2022-07-26T19:45:36.670Z,28.33
2022-07-26T19:48:06.388Z,14.88
2022-07-26T19:50:35.630Z,16.27
2022-07-26T19:53:04.838Z,10.88
2022-07-26T19:55:33.991Z,8.70
2022-07-26T19:58:03.134Z,9.68
2022-07-26T20:00:32.373Z,7.45
2022-07-26T20:03:02.119Z,8.93
2022-07-26T20:05:31.316Z,7.80
2022-07-26T20:08:02.550Z,7.43
2022-07-26T20:10:32.415Z,6.57
2022-07-26T20:13:01.842Z,5.60
2022-07-26T20:15:31.088Z,7.35
2022-07-26T20:18:00.486Z,7.80
2022-07-26T20:20:29.621Z,7.60
2022-07-26T20:22:58.963Z,8.00
2022-07-26T20:25:28.160Z,6.57
2022-07-26T20:27:57.449Z,7.68
2022-07-26T20:30:26.841Z,6.85
2022-07-26T20:32:56.287Z,7.90
2022-07-26T20:35:25.400Z,6.70
2022-07-26T20:37:54.630Z,7.35
2022-07-26T20:40:23.891Z,9.45
2022-07-26T20:42:53.950Z,12.32
2022-07-26T20:45:26.536Z,8.10
2022-07-26T20:47:56.775Z,6.32
2022-07-26T20:50:26.004Z,6.97
2022-07-26T20:52:55.207Z,8.63
2022-07-26T20:55:25.370Z,5.10
2022-07-26T20:57:54.553Z,5.50
2022-07-26T21:00:23.776Z,9.85
2022-07-26T21:02:54.873Z,8.05
2022-07-26T21:05:24.149Z,6.45
2022-07-26T21:07:59.250Z,6.90
2022-07-26T21:10:30.649Z,5.60
2022-07-26T21:13:01.669Z,8.00
2022-07-26T21:15:31.967Z,9.68
2022-07-26T21:18:02.416Z,8.30
2022-07-26T21:20:33.407Z,7.13
2022-07-26T21:23:15.855Z,10.73
2022-07-26T21:25:46.328Z,13.27
2022-07-26T21:28:15.508Z,8.57
2022-07-26T21:30:44.679Z,9.73
2022-07-26T21:33:14.739Z,8.20
2022-07-26T21:35:44.132Z,8.50
2022-07-26T21:38:13.345Z,10.18
2022-07-26T21:40:42.619Z,10.70
2022-07-26T21:43:11.790Z,8.60
2022-07-26T21:45:41.531Z,9.50
2022-07-26T21:48:10.785Z,11.60
2022-07-26T21:50:39.923Z,11.13
2022-07-26T21:53:09.158Z,10.02
2022-07-26T21:55:38.311Z,8.15
2022-07-26T21:58:07.546Z,11.20
2022-07-26T22:00:40.683Z,11.90
2022-07-26T22:03:10.233Z,11.70
2022-07-26T22:05:39.410Z,10.25
2022-07-26T22:08:11.230Z,11.98
2022-07-26T22:10:45.946Z,9.05
2022-07-26T22:13:16.181Z,9.55
2022-07-26T22:15:46.394Z,10.07
2022-07-26T22:18:15.939Z,10.57
2022-07-26T22:20:45.587Z,8.25
2022-07-26T22:23:15.222Z,12.77
2022-07-26T22:25:44.754Z,12.20
2022-07-26T22:28:18.515Z,17.15
2022-07-26T22:30:48.031Z,24.10
2022-07-26T22:33:17.852Z,29.20
2022-07-26T22:35:47.011Z,39.38
2022-07-26T22:38:16.302Z,41.20
2022-07-26T22:40:46.141Z,68.15
2022-07-26T22:43:16.327Z,64.80
2022-07-26T22:45:45.805Z,68.18
2022-07-26T22:48:15.081Z,74.55
2022-07-26T22:50:44.354Z,87.18
2022-07-26T22:53:13.607Z,74.65
2022-07-26T22:55:42.828Z,60.00
2022-07-26T22:58:11.985Z,40.63
2022-07-26T23:00:41.362Z,34.08
2022-07-26T23:03:20.032Z,24.67
2022-07-26T23:05:52.301Z,24.63
2022-07-26T23:08:47.178Z,21.97
2022-07-26T23:11:10.946Z,20.58
2022-07-26T23:13:40.154Z,15.23
2022-07-26T23:16:09.345Z,12.77
2022-07-26T23:18:38.696Z,16.17
2022-07-26T23:21:07.913Z,14.20
2022-07-26T23:23:37.025Z,12.60
2022-07-26T23:26:06.206Z,11.75
2022-07-26T23:28:38.271Z,9.70
2022-07-26T23:31:12.189Z,11.20
2022-07-26T23:33:52.516Z,9.05
2022-07-26T23:36:26.502Z,10.80
2022-07-26T23:38:57.695Z,10.80
2022-07-26T23:41:27.186Z,10.95
2022-07-26T23:43:56.926Z,10.60
2022-07-26T23:46:26.626Z,15.93
2022-07-26T23:48:56.913Z,12.30
2022-07-26T23:51:26.441Z,10.63
2022-07-26T23:53:55.982Z,10.00
2022-07-26T23:56:25.690Z,9.50
2022-07-26T23:58:54.915Z,8.95
